Time,TemperatureF,DewpointF,PressureIn,WindDirection,WindDirectionDegrees,WindSpeedMPH,WindSpeedGustMPH,Humidity,HourlyPrecipIn,Conditions,Clouds,dailyrainin,SoftwareType,DateUTC
2013-01-11 00:10:00,30.2,27.1,30.41,SSE,157,0.0,-999.0,88,-99.99,,,0.00,Acu-Link.com,2013-01-11 05:10:00,
2013-01-11 00:25:00,30.4,26.7,30.41,West,270,0.0,-999.0,86,-99.99,,,0.00,Acu-Link.com,2013-01-11 05:25:00,
2013-01-11 00:41:00,30.7,26.4,30.39,West,270,0.0,-999.0,84,-99.99,,,0.00,Acu-Link.com,2013-01-11 05:41:00,
2013-01-11 00:56:00,31.3,26.7,30.39,NW,315,0.0,-999.0,83,-99.99,,,0.00,Acu-Link.com,2013-01-11 05:56:00,
2013-01-11 01:11:00,31.6,26.7,30.39,WNW,292,0.0,-999.0,82,-99.99,,,0.00,Acu-Link.com,2013-01-11 06:11:00,
2013-01-11 01:26:00,31.8,26.9,30.39,North,0,0.0,-999.0,82,-99.99,,,0.00,Acu-Link.com,2013-01-11 06:26:00,
2013-01-11 01:41:00,32.0,26.8,30.39,East,90,0.0,-999.0,81,-99.99,,,0.00,Acu-Link.com,2013-01-11 06:41:00,
2013-01-11 01:57:00,31.8,27.8,30.38,West,270,0.0,-999.0,85,-99.99,,,0.00,Acu-Link.com,2013-01-11 06:57:00,
2013-01-11 02:12:00,31.8,27.5,30.38,ENE,67,0.0,-999.0,84,-99.99,,,0.00,Acu-Link.com,2013-01-11 07:12:00,
2013-01-11 02:27:00,32.2,27.0,30.37,North,0,0.0,-999.0,81,-99.99,,,0.00,Acu-Link.com,2013-01-11 07:27:00,
2013-01-11 02:42:00,32.5,27.0,30.38,NNE,22,0.0,-999.0,80,-99.99,,,0.00,Acu-Link.com,2013-01-11 07:42:00,
2013-01-11 02:57:00,32.7,27.5,30.37,NE,45,0.0,-999.0,81,-99.99,,,0.00,Acu-Link.com,2013-01-11 07:57:00,
2013-01-11 03:13:00,32.7,27.2,30.36,East,90,0.0,-999.0,80,-99.99,,,0.00,Acu-Link.com,2013-01-11 08:13:00,
2013-01-11 03:28:00,32.7,27.5,30.36,WNW,292,0.0,-999.0,81,-99.99,,,0.00,Acu-Link.com,2013-01-11 08:28:00,
2013-01-11 03:43:00,32.9,27.1,30.36,NW,315,0.0,-999.0,79,-99.99,,,0.00,Acu-Link.com,2013-01-11 08:43:00,
2013-01-11 03:58:00,32.9,27.1,30.34,WNW,292,0.0,-999.0,79,-99.99,,,0.00,Acu-Link.com,2013-01-11 08:58:00,
2013-01-11 04:13:00,32.9,27.1,30.34,WNW,292,0.0,-999.0,79,-99.99,,,0.00,Acu-Link.com,2013-01-11 09:13:00,
2013-01-11 04:29:00,32.7,26.6,30.33,NNW,337,0.0,-999.0,78,-99.99,,,0.00,Acu-Link.com,2013-01-11 09:29:00,
2013-01-11 04:44:00,32.5,26.4,30.33,NNW,337,0.0,-999.0,78,-99.99,,,0.00,Acu-Link.com,2013-01-11 09:44:00,
2013-01-11 04:59:00,32.5,27.6,30.32,WNW,292,0.0,-999.0,82,-99.99,,,0.00,Acu-Link.com,2013-01-11 09:59:00,
2013-01-11 05:14:00,32.5,27.6,30.32,NNW,337,0.0,-999.0,82,-99.99,,,0.00,Acu-Link.com,2013-01-11 10:14:00,
2013-01-11 05:29:00,32.7,27.2,30.31,SW,225,0.0,-999.0,80,-99.99,,,0.00,Acu-Link.com,2013-01-11 10:29:00,
2013-01-11 05:44:00,32.9,27.4,30.31,East,90,0.0,-999.0,80,-99.99,,,0.00,Acu-Link.com,2013-01-11 10:44:00,
2013-01-11 06:00:00,33.1,27.3,30.31,NNE,22,0.0,-999.0,79,-99.99,,,0.00,Acu-Link.com,2013-01-11 11:00:00,
2013-01-11 06:15:00,33.4,28.2,30.30,ENE,67,0.0,-999.0,81,-99.99,,,0.00,Acu-Link.com,2013-01-11 11:15:00,
2013-01-11 06:30:00,34.5,27.1,30.29,East,90,1.7,-999.0,74,-99.99,,,0.00,Acu-Link.com,2013-01-11 11:30:00,
2013-01-11 06:45:00,34.7,27.3,30.30,NNW,337,0.0,-999.0,74,-99.99,,,0.00,Acu-Link.com,2013-01-11 11:45:00,
2013-01-11 07:16:00,35.1,28.6,30.30,East,90,1.7,-999.0,77,-99.99,,,0.00,Acu-Link.com,2013-01-11 12:16:00,
2013-01-11 07:31:00,35.4,28.3,30.29,East,90,0.0,-999.0,75,-99.99,,,0.00,Acu-Link.com,2013-01-11 12:31:00,
2013-01-11 07:46:00,35.6,27.1,30.29,ESE,112,0.0,-999.0,71,-99.99,,,0.00,Acu-Link.com,2013-01-11 12:46:00,
2013-01-11 08:01:00,36.7,27.2,30.28,NE,45,0.0,-999.0,68,-99.99,,,0.00,Acu-Link.com,2013-01-11 13:01:00,
2013-01-11 08:17:00,36.7,28.2,30.30,NNE,22,0.0,-999.0,71,-99.99,,,0.00,Acu-Link.com,2013-01-11 13:17:00,
2013-01-11 08:32:00,36.7,27.2,30.29,NNE,22,0.0,-999.0,68,-99.99,,,0.00,Acu-Link.com,2013-01-11 13:32:00,
2013-01-11 08:47:00,36.9,28.0,30.28,ENE,67,0.0,-999.0,70,-99.99,,,0.00,Acu-Link.com,2013-01-11 13:47:00,
2013-01-11 09:02:00,37.8,27.8,30.27,East,90,1.7,-999.0,67,-99.99,,,0.00,Acu-Link.com,2013-01-11 14:02:00,
2013-01-11 09:17:00,38.7,27.6,30.26,East,90,1.7,-999.0,64,-99.99,,,0.00,Acu-Link.com,2013-01-11 14:17:00,
2013-01-11 09:33:00,38.3,30.1,30.26,NNW,337,1.1,-999.0,72,-99.99,,,0.00,Acu-Link.com,2013-01-11 14:33:00,
2013-01-11 09:48:00,37.0,32.9,30.25,West,270,0.0,-999.0,85,-99.99,,,0.00,Acu-Link.com,2013-01-11 14:48:00,
2013-01-11 10:03:00,38.3,34.8,30.24,NNE,22,0.0,-999.0,87,-99.99,,,0.01,Acu-Link.com,2013-01-11 15:03:00,
2013-01-11 10:18:00,38.3,35.1,30.24,SE,135,0.0,-999.0,88,-99.99,,,0.01,Acu-Link.com,2013-01-11 15:18:00,
2013-01-11 10:33:00,38.5,35.3,30.22,NW,315,0.0,-999.0,88,-99.99,,,0.01,Acu-Link.com,2013-01-11 15:33:00,
2013-01-11 10:49:00,38.3,34.2,30.20,ENE,67,0.0,-999.0,85,-99.99,,,0.01,Acu-Link.com,2013-01-11 15:49:00,
2013-01-11 11:04:00,39.2,34.8,30.20,NE,45,0.0,-999.0,84,-99.99,,,0.01,Acu-Link.com,2013-01-11 16:04:00,
2013-01-11 11:19:00,38.1,34.6,30.19,SSW,202,0.0,-999.0,87,-99.99,,,0.01,Acu-Link.com,2013-01-11 16:19:00,
2013-01-11 11:34:00,40.1,34.4,30.17,ESE,112,0.0,-999.0,80,-99.99,,,0.01,Acu-Link.com,2013-01-11 16:34:00,
2013-01-11 11:49:00,41.5,33.8,30.17,North,0,0.0,-999.0,74,-99.99,,,0.01,Acu-Link.com,2013-01-11 16:49:00,
2013-01-11 12:05:00,41.7,31.9,30.15,East,90,2.2,-999.0,68,-99.99,,,0.01,Acu-Link.com,2013-01-11 17:05:00,
2013-01-11 12:20:00,41.2,30.0,30.13,ESE,112,2.7,-999.0,64,-99.99,,,0.01,Acu-Link.com,2013-01-11 17:20:00,
2013-01-11 12:35:00,41.7,30.4,30.13,ENE,67,0.0,-999.0,64,-99.99,,,0.01,Acu-Link.com,2013-01-11 17:35:00,
2013-01-11 12:50:00,41.0,30.5,30.12,East,90,0.0,-999.0,66,-99.99,,,0.01,Acu-Link.com,2013-01-11 17:50:00,
2013-01-11 13:05:00,40.6,31.6,30.12,ENE,67,0.0,-999.0,70,-99.99,,,0.01,Acu-Link.com,2013-01-11 18:05:00,
2013-01-11 13:21:00,40.3,32.0,30.11,NW,315,0.0,-999.0,72,-99.99,,,0.01,Acu-Link.com,2013-01-11 18:21:00,
2013-01-11 13:36:00,39.2,32.3,30.10,East,90,0.0,-999.0,76,-99.99,,,0.02,Acu-Link.com,2013-01-11 18:36:00,
2013-01-11 13:51:00,38.7,33.4,30.10,NE,45,0.0,-999.0,81,-99.99,,,0.02,Acu-Link.com,2013-01-11 18:51:00,
2013-01-11 14:06:00,37.0,33.8,30.10,NNW,337,0.0,-999.0,88,-99.99,,,0.03,Acu-Link.com,2013-01-11 19:06:00,
2013-01-11 14:22:00,36.9,34.5,30.10,West,270,1.7,-999.0,91,-99.99,,,0.09,Acu-Link.com,2013-01-11 19:22:00,
2013-01-11 14:37:00,36.1,34.5,30.11,ENE,67,0.0,-999.0,94,-99.99,,,0.14,Acu-Link.com,2013-01-11 19:37:00,
2013-01-11 14:52:00,35.6,34.3,30.10,NNW,337,0.0,-999.0,95,-99.99,,,0.20,Acu-Link.com,2013-01-11 19:52:00,
2013-01-11 15:07:00,35.4,34.1,30.10,WNW,292,0.0,-999.0,95,-99.99,,,0.24,Acu-Link.com,2013-01-11 20:07:00,
2013-01-11 15:22:00,35.4,34.4,30.08,ENE,67,0.0,-999.0,96,-99.99,,,0.26,Acu-Link.com,2013-01-11 20:22:00,
2013-01-11 15:38:00,35.6,34.6,30.08,NNW,337,0.0,-999.0,96,-99.99,,,0.26,Acu-Link.com,2013-01-11 20:38:00,
2013-01-11 15:53:00,35.4,34.6,30.07,ESE,112,0.0,-999.0,97,-99.99,,,0.26,Acu-Link.com,2013-01-11 20:53:00,
2013-01-11 16:08:00,35.2,34.4,30.07,ENE,67,0.0,-999.0,97,-99.99,,,0.26,Acu-Link.com,2013-01-11 21:08:00,
2013-01-11 16:23:00,35.1,34.3,30.08,NW,315,0.0,-999.0,97,-99.99,,,0.26,Acu-Link.com,2013-01-11 21:23:00,
2013-01-11 16:38:00,34.9,34.4,30.06,North,0,0.0,-999.0,98,-99.99,,,0.27,Acu-Link.com,2013-01-11 21:38:00,
2013-01-11 16:54:00,34.7,34.2,30.06,NNW,337,0.0,-999.0,98,-99.99,,,0.29,Acu-Link.com,2013-01-11 21:54:00,
2013-01-11 17:09:00,34.7,34.2,30.04,ESE,112,0.0,-999.0,98,-99.99,,,0.29,Acu-Link.com,2013-01-11 22:09:00,
2013-01-11 17:25:00,34.5,34.2,30.05,NW,315,0.0,-999.0,99,-99.99,,,0.29,Acu-Link.com,2013-01-11 22:25:00,
2013-01-11 17:40:00,34.2,33.9,30.04,NNW,337,0.0,-999.0,99,-99.99,,,0.29,Acu-Link.com,2013-01-11 22:40:00,
2013-01-11 17:55:00,34.3,34.0,30.03,North,0,0.0,-999.0,99,-99.99,,,0.29,Acu-Link.com,2013-01-11 22:55:00,
2013-01-11 18:10:00,34.5,34.2,30.03,North,0,1.7,-999.0,99,-99.99,,,0.30,Acu-Link.com,2013-01-11 23:10:00,
2013-01-11 18:25:00,34.7,34.4,30.04,NW,315,0.0,-999.0,99,-99.99,,,0.32,Acu-Link.com,2013-01-11 23:25:00,
2013-01-11 18:41:00,34.7,34.4,30.05,NW,315,1.1,-999.0,99,-99.99,,,0.32,Acu-Link.com,2013-01-11 23:41:00,
2013-01-11 18:56:00,34.5,34.2,30.04,NNW,337,0.0,-999.0,99,-99.99,,,0.32,Acu-Link.com,2013-01-11 23:56:00,
2013-01-11 19:11:00,34.5,34.2,30.03,WNW,292,0.0,-999.0,99,-99.99,,,0.32,Acu-Link.com,2013-01-12 00:11:00,
2013-01-11 19:26:00,34.5,34.2,30.03,NW,315,0.0,-999.0,99,-99.99,,,0.32,Acu-Link.com,2013-01-12 00:26:00,
2013-01-11 19:42:00,34.5,34.2,30.03,NW,315,0.0,-999.0,99,-99.99,,,0.32,Acu-Link.com,2013-01-12 00:42:00,
2013-01-11 19:57:00,34.5,34.2,30.03,North,0,0.0,-999.0,99,-99.99,,,0.32,Acu-Link.com,2013-01-12 00:57:00,
2013-01-11 20:12:00,34.5,34.2,30.03,WNW,292,0.0,-999.0,99,-99.99,,,0.32,Acu-Link.com,2013-01-12 01:12:00,
2013-01-11 20:27:00,34.5,34.2,30.03,WNW,292,0.0,-999.0,99,-99.99,,,0.32,Acu-Link.com,2013-01-12 01:27:00,
2013-01-11 20:42:00,34.7,34.4,30.03,NW,315,0.0,-999.0,99,-99.99,,,0.32,Acu-Link.com,2013-01-12 01:42:00,
2013-01-11 20:58:00,34.3,34.0,30.03,NNW,337,0.0,-999.0,99,-99.99,,,0.32,Acu-Link.com,2013-01-12 01:58:00,
2013-01-11 21:13:00,34.3,34.0,30.02,North,0,0.0,-999.0,99,-99.99,,,0.32,Acu-Link.com,2013-01-12 02:13:00,
2013-01-11 21:28:00,34.5,34.2,30.02,WNW,292,0.0,-999.0,99,-99.99,,,0.32,Acu-Link.com,2013-01-12 02:28:00,
2013-01-11 21:43:00,34.5,34.2,30.02,WNW,292,0.0,-999.0,99,-99.99,,,0.32,Acu-Link.com,2013-01-12 02:43:00,
2013-01-11 21:58:00,34.5,34.2,30.02,WNW,292,0.0,-999.0,99,-99.99,,,0.32,Acu-Link.com,2013-01-12 02:58:00,
2013-01-11 22:14:00,34.5,34.2,30.02,WNW,292,0.0,-999.0,99,-99.99,,,0.32,Acu-Link.com,2013-01-12 03:14:00,
2013-01-11 22:29:00,34.7,34.4,30.02,NNW,337,0.0,-999.0,99,-99.99,,,0.32,Acu-Link.com,2013-01-12 03:29:00,
2013-01-11 22:44:00,34.7,34.4,30.02,NW,315,0.0,-999.0,99,-99.99,,,0.32,Acu-Link.com,2013-01-12 03:44:00,
2013-01-11 22:59:00,34.3,34.0,30.02,ESE,112,0.0,-999.0,99,-99.99,,,0.32,Acu-Link.com,2013-01-12 03:59:00,
2013-01-11 23:14:00,34.3,34.0,30.01,NNE,22,0.0,-999.0,99,-99.99,,,0.32,Acu-Link.com,2013-01-12 04:14:00,
2013-01-11 23:30:00,34.2,33.9,30.01,NNW,337,0.0,-999.0,99,-99.99,,,0.32,Acu-Link.com,2013-01-12 04:30:00,
2013-01-11 23:45:00,34.0,33.7,30.02,WNW,292,0.0,-999.0,99,-99.99,,,0.32,Acu-Link.com,2013-01-12 04:45:00,